Oentsjerk, Netherlands
Current Conditions -  °F | °C
As of 3:25 PM on Friday 28 Nov 2014 (Local Time) from EHLW Reporting Station
Haze Haze  
Wind Chill: 33°   Ceiling: Unl
Heat Index: 41°   Visibility: 5mi
Dew Point: 36°   Wind: 14mph
Humidity: 81%   Direction: 110°ESE
Pressure: 29.85"   Gusts: 26mph
Location:  53.25°N, 5.9°E
Report Text: EHLW 281425Z AUTO 11012G23KT 8000 BR SCT090/// OVC100/// 05/02 Q1011 BLU 10013KT 8000 NSC RMK TS INFO NOT AVBL
Loading
Personal Weather Stations






























Interactive Weather Map New forecast layout! Learn more

10-Day Weather Forecast

Advertisements
Track Severe Weather on mobile